createdAt,value
2022-12-24T00:01:05.346Z,10.50
2022-12-24T00:03:32.697Z,10.50
2022-12-24T00:05:59.359Z,10.50
2022-12-24T00:08:26.001Z,10.40
2022-12-24T00:10:53.515Z,10.40
2022-12-24T00:13:21.398Z,10.40
2022-12-24T00:15:49.122Z,10.40
2022-12-24T00:18:16.029Z,10.30
2022-12-24T00:20:47.193Z,10.30
2022-12-24T00:23:14.083Z,10.30
2022-12-24T00:25:40.727Z,10.30
2022-12-24T00:28:07.381Z,10.30
2022-12-24T00:30:33.962Z,10.30
2022-12-24T00:33:00.568Z,10.30
2022-12-24T00:35:27.384Z,10.30
2022-12-24T00:37:53.917Z,10.30
2022-12-24T00:40:20.519Z,10.30
2022-12-24T00:42:47.104Z,10.30
2022-12-24T00:45:13.775Z,10.30
2022-12-24T00:47:40.447Z,10.30
2022-12-24T00:50:07.748Z,10.30
2022-12-24T00:52:34.899Z,10.30
2022-12-24T00:55:01.546Z,10.30
2022-12-24T00:57:28.143Z,10.30
2022-12-24T00:59:54.783Z,10.30
2022-12-24T01:02:21.809Z,10.30
2022-12-24T01:05:07.043Z,10.30
2022-12-24T01:07:33.989Z,10.30
2022-12-24T01:10:00.614Z,10.40
2022-12-24T01:12:27.620Z,10.30
2022-12-24T01:14:54.175Z,10.30
2022-12-24T01:17:20.875Z,10.30
2022-12-24T01:19:47.505Z,10.20
2022-12-24T01:22:14.122Z,10.20
2022-12-24T01:24:41.720Z,10.20
2022-12-24T01:27:08.365Z,10.20
2022-12-24T01:29:34.964Z,10.20
2022-12-24T01:32:01.575Z,10.20
2022-12-24T01:34:28.168Z,10.20
2022-12-24T01:36:54.720Z,10.20
2022-12-24T01:39:21.388Z,10.10
2022-12-24T01:42:06.467Z,10.10
2022-12-24T01:44:37.109Z,10.10
2022-12-24T01:47:17.556Z,10.10
2022-12-24T01:49:52.580Z,10.10
2022-12-24T01:52:27.963Z,10.20
2022-12-24T01:54:59.754Z,10.10
2022-12-24T01:57:29.771Z,10.10
2022-12-24T02:00:00.563Z,10.20
2022-12-24T02:02:28.750Z,10.10
2022-12-24T02:05:03.312Z,10.20
2022-12-24T02:07:30.915Z,10.20
2022-12-24T02:09:59.425Z,10.20
2022-12-24T02:12:28.629Z,10.20
2022-12-24T02:14:55.425Z,10.20
2022-12-24T02:17:32.017Z,10.20
2022-12-24T02:20:13.479Z,10.20
2022-12-24T02:23:04.650Z,10.10
2022-12-24T02:25:52.338Z,10.10
2022-12-24T02:28:33.863Z,10.00
2022-12-24T02:31:24.144Z,10.00
2022-12-24T02:33:57.590Z,10.00
2022-12-24T02:36:35.023Z,10.00
2022-12-24T02:39:08.166Z,10.00
2022-12-24T02:42:02.709Z,9.90
2022-12-24T02:44:31.213Z,10.00
2022-12-24T02:47:00.507Z,10.00
2022-12-24T02:49:27.171Z,10.00
2022-12-24T02:51:53.737Z,10.00
2022-12-24T02:54:20.501Z,10.00
2022-12-24T02:57:23.694Z,10.00
2022-12-24T03:00:02.393Z,10.00
2022-12-24T03:02:45.816Z,9.90
2022-12-24T03:05:39.361Z,9.90
2022-12-24T03:08:35.802Z,9.80
2022-12-24T03:11:16.575Z,9.70
2022-12-24T03:13:43.735Z,9.70
2022-12-24T03:16:17.780Z,9.80
2022-12-24T03:18:49.088Z,9.80
2022-12-24T03:21:25.773Z,9.80
2022-12-24T03:23:52.403Z,9.80
2022-12-24T03:26:19.989Z,9.70
2022-12-24T03:28:47.770Z,9.70
2022-12-24T03:31:14.922Z,9.70
2022-12-24T03:33:41.847Z,9.80
2022-12-24T03:36:09.387Z,9.80
2022-12-24T03:38:35.992Z,9.80
2022-12-24T03:41:02.807Z,9.70
2022-12-24T03:43:29.474Z,9.70
2022-12-24T03:45:56.154Z,9.60
2022-12-24T03:48:26.115Z,9.60
2022-12-24T03:50:58.759Z,9.60
2022-12-24T03:53:25.317Z,9.60
2022-12-24T03:55:51.858Z,9.60
2022-12-24T03:58:18.451Z,9.60
2022-12-24T04:00:45.093Z,9.70
2022-12-24T04:03:11.778Z,9.70
2022-12-24T04:05:38.378Z,9.70
2022-12-24T04:08:05.088Z,9.70
2022-12-24T04:10:31.652Z,9.70
2022-12-24T04:12:58.301Z,9.80
2022-12-24T04:15:24.884Z,9.80
2022-12-24T04:17:51.429Z,9.80
2022-12-24T04:20:18.022Z,9.80
2022-12-24T04:22:44.606Z,9.90
2022-12-24T04:25:11.225Z,9.90
2022-12-24T04:27:37.796Z,9.90
2022-12-24T04:30:04.926Z,9.90
2022-12-24T04:32:31.531Z,9.90
2022-12-24T04:34:58.062Z,9.90
2022-12-24T04:37:24.630Z,10.00
2022-12-24T04:39:51.205Z,10.00
2022-12-24T04:42:17.765Z,10.00
2022-12-24T04:44:44.322Z,10.00
2022-12-24T04:47:10.930Z,10.00
2022-12-24T04:49:37.644Z,10.00
2022-12-24T04:52:04.413Z,10.00
2022-12-24T04:54:30.972Z,10.00
2022-12-24T04:56:57.524Z,10.00
2022-12-24T04:59:24.095Z,10.00
2022-12-24T05:01:50.751Z,10.00
2022-12-24T05:04:17.359Z,10.00
2022-12-24T05:06:43.915Z,10.10
2022-12-24T05:09:10.516Z,10.10
2022-12-24T05:11:37.090Z,10.10
2022-12-24T05:14:04.085Z,10.00
2022-12-24T05:16:30.704Z,10.00
2022-12-24T05:18:57.314Z,10.00
2022-12-24T05:21:24.859Z,10.10
2022-12-24T05:24:10.430Z,10.10
2022-12-24T05:26:41.802Z,10.10
2022-12-24T05:29:09.850Z,10.10
2022-12-24T05:31:36.576Z,10.10
2022-12-24T05:34:03.454Z,10.10
2022-12-24T05:36:30.156Z,10.10
2022-12-24T05:38:56.994Z,10.10
2022-12-24T05:41:23.759Z,10.10
2022-12-24T05:43:50.445Z,10.20
2022-12-24T05:46:20.323Z,10.20
2022-12-24T05:48:47.659Z,10.10
2022-12-24T05:51:15.334Z,10.20
2022-12-24T05:53:42.039Z,10.20
2022-12-24T05:56:11.036Z,10.10
2022-12-24T05:58:38.775Z,10.20
2022-12-24T06:01:06.326Z,10.20
2022-12-24T06:03:33.776Z,10.20
2022-12-24T06:06:05.764Z,10.20
2022-12-24T06:08:33.683Z,10.20
2022-12-24T06:11:02.284Z,10.20
2022-12-24T06:13:29.718Z,10.10
2022-12-24T06:15:58.000Z,10.10
2022-12-24T06:18:25.081Z,10.00
2022-12-24T06:20:56.291Z,10.10
2022-12-24T06:23:24.058Z,10.00
2022-12-24T06:25:51.459Z,10.00
2022-12-24T06:28:18.553Z,10.00
2022-12-24T06:30:49.909Z,10.00
2022-12-24T06:33:17.348Z,10.00
2022-12-24T06:35:46.049Z,10.10
2022-12-24T06:38:13.824Z,10.20
2022-12-24T06:40:41.736Z,10.20
2022-12-24T06:43:08.341Z,10.20
2022-12-24T06:45:35.042Z,10.20
2022-12-24T06:48:01.806Z,10.20
2022-12-24T06:50:29.486Z,10.30
2022-12-24T06:52:56.073Z,10.20
2022-12-24T06:55:22.656Z,10.20
2022-12-24T06:57:49.188Z,10.20
2022-12-24T07:00:16.067Z,10.20
2022-12-24T07:02:43.703Z,10.30
2022-12-24T07:05:13.510Z,10.20
2022-12-24T07:07:42.685Z,10.20
2022-12-24T07:10:12.453Z,10.30
2022-12-24T07:12:39.026Z,10.30
2022-12-24T07:15:06.031Z,10.30
2022-12-24T07:17:32.879Z,10.30
2022-12-24T07:19:59.477Z,10.30
2022-12-24T07:22:26.044Z,10.20
2022-12-24T07:24:52.633Z,10.20
2022-12-24T07:27:19.186Z,10.20
2022-12-24T07:29:45.776Z,10.20
2022-12-24T07:32:12.331Z,10.20
2022-12-24T07:34:39.681Z,10.30
2022-12-24T07:37:07.337Z,10.30
2022-12-24T07:39:33.962Z,10.20
2022-12-24T07:42:00.797Z,10.20
2022-12-24T07:44:27.368Z,10.20
2022-12-24T07:46:54.053Z,10.20
2022-12-24T07:49:20.688Z,10.20
2022-12-24T07:51:47.287Z,10.20
2022-12-24T07:54:14.641Z,10.30
2022-12-24T07:56:42.458Z,10.30
2022-12-24T07:59:12.011Z,10.30
2022-12-24T08:01:38.795Z,10.30
2022-12-24T08:04:05.807Z,10.20
2022-12-24T08:06:32.487Z,10.20
2022-12-24T08:08:59.052Z,10.30
2022-12-24T08:11:25.633Z,10.30
2022-12-24T08:13:52.591Z,10.30
2022-12-24T08:16:19.206Z,10.30
2022-12-24T08:18:45.867Z,10.30
2022-12-24T08:21:12.480Z,10.30
2022-12-24T08:23:39.055Z,10.40
2022-12-24T08:26:10.105Z,10.40
2022-12-24T08:28:37.141Z,10.40
2022-12-24T08:31:04.147Z,10.40
2022-12-24T08:33:32.057Z,10.50
2022-12-24T08:36:00.803Z,10.50
2022-12-24T08:38:27.356Z,10.60
2022-12-24T08:40:54.955Z,10.50
2022-12-24T08:43:22.113Z,10.50
2022-12-24T08:45:49.996Z,10.50
2022-12-24T08:48:17.026Z,10.60
2022-12-24T08:50:44.099Z,10.60
2022-12-24T08:53:11.506Z,10.60
2022-12-24T08:55:39.410Z,10.60
2022-12-24T08:58:06.265Z,10.70
2022-12-24T09:00:32.879Z,10.80
2022-12-24T09:02:59.583Z,10.80
2022-12-24T09:05:26.226Z,10.80
2022-12-24T09:07:53.147Z,10.80
2022-12-24T09:10:20.129Z,10.80
2022-12-24T09:12:46.871Z,10.80
2022-12-24T09:15:14.327Z,11.10
2022-12-24T09:17:41.250Z,11.20
2022-12-24T09:20:08.558Z,11.50
2022-12-24T09:22:38.366Z,11.70
2022-12-24T09:25:10.375Z,11.90
2022-12-24T09:27:37.502Z,12.10
2022-12-24T09:30:06.287Z,11.90
2022-12-24T09:32:33.854Z,11.70
2022-12-24T09:35:00.804Z,11.60
2022-12-24T09:37:27.428Z,11.70
2022-12-24T09:39:54.035Z,11.80
2022-12-24T09:42:31.954Z,11.80
2022-12-24T09:45:29.587Z,11.90
2022-12-24T09:48:01.915Z,11.70
2022-12-24T09:50:52.312Z,11.80
2022-12-24T09:53:32.226Z,11.90
2022-12-24T09:56:01.988Z,11.80
2022-12-24T09:58:37.349Z,12.20
2022-12-24T10:01:04.356Z,12.30
2022-12-24T10:03:31.891Z,11.90
2022-12-24T10:05:58.491Z,11.80
2022-12-24T10:08:51.017Z,11.70
2022-12-24T10:11:52.303Z,11.60
2022-12-24T10:14:40.674Z,11.80
2022-12-24T10:17:41.935Z,11.70
2022-12-24T10:20:27.034Z,11.70
2022-12-24T10:23:13.466Z,11.90
2022-12-24T10:25:59.064Z,12.00
2022-12-24T10:28:38.476Z,12.00
2022-12-24T10:31:08.465Z,12.10
2022-12-24T10:33:43.192Z,12.00
2022-12-24T10:36:18.694Z,11.90
2022-12-24T10:38:46.134Z,12.00
2022-12-24T10:41:14.391Z,12.10
2022-12-24T10:43:43.127Z,12.20
2022-12-24T10:46:28.039Z,12.30
2022-12-24T10:49:07.132Z,12.30
2022-12-24T10:51:33.660Z,12.40
2022-12-24T10:54:13.914Z,12.40
2022-12-24T10:56:47.832Z,12.20
2022-12-24T10:59:30.621Z,12.20
2022-12-24T11:02:01.678Z,12.20
2022-12-24T11:04:31.682Z,12.10
2022-12-24T11:07:04.186Z,12.00
2022-12-24T11:09:43.243Z,12.00
2022-12-24T11:12:21.673Z,12.00
2022-12-24T11:14:50.793Z,11.90
2022-12-24T11:17:23.002Z,12.00
2022-12-24T11:19:50.752Z,12.10
2022-12-24T11:22:29.236Z,12.10
2022-12-24T11:25:17.360Z,12.10
2022-12-24T11:27:49.547Z,12.10
2022-12-24T11:30:16.267Z,12.10
2022-12-24T11:32:45.246Z,11.90
2022-12-24T11:35:24.596Z,11.80
2022-12-24T11:38:00.109Z,11.90
2022-12-24T11:40:35.231Z,12.20
2022-12-24T11:43:03.071Z,12.10
2022-12-24T11:45:32.317Z,12.20
2022-12-24T11:48:00.204Z,12.20
2022-12-24T11:50:36.471Z,12.10
2022-12-24T11:53:03.004Z,12.00
2022-12-24T11:55:55.550Z,12.20
2022-12-24T11:58:40.874Z,12.30
2022-12-24T12:01:24.614Z,12.40
2022-12-24T12:04:35.091Z,12.50
2022-12-24T12:07:15.012Z,12.90
2022-12-24T12:09:47.378Z,12.90
2022-12-24T12:12:22.139Z,12.90
2022-12-24T12:14:55.845Z,13.00
2022-12-24T12:17:43.733Z,13.00
2022-12-24T12:20:16.585Z,12.80
2022-12-24T12:23:07.767Z,12.50
2022-12-24T12:25:43.162Z,12.40
2022-12-24T12:28:20.362Z,12.40
2022-12-24T12:30:55.677Z,12.30
2022-12-24T12:33:57.190Z,12.20
2022-12-24T12:36:30.252Z,12.00
2022-12-24T12:38:56.923Z,12.00
2022-12-24T12:41:55.225Z,12.00
2022-12-24T12:45:04.522Z,12.20
2022-12-24T12:48:01.141Z,12.40
2022-12-24T12:50:52.605Z,12.60
2022-12-24T12:53:39.315Z,12.50
2022-12-24T12:56:29.908Z,12.60
2022-12-24T12:59:05.516Z,12.00
2022-12-24T13:01:55.634Z,11.90
2022-12-24T13:04:40.547Z,11.90
2022-12-24T13:07:25.953Z,12.10
2022-12-24T13:10:33.842Z,12.30
2022-12-24T13:13:32.494Z,12.40
2022-12-24T13:16:24.450Z,12.40
2022-12-24T13:18:51.054Z,12.20
2022-12-24T13:21:21.775Z,12.20
2022-12-24T13:23:49.384Z,12.20
2022-12-24T13:26:16.719Z,12.10
2022-12-24T13:28:43.635Z,12.10
2022-12-24T13:31:25.255Z,12.00
2022-12-24T13:33:57.410Z,11.90
2022-12-24T13:36:24.331Z,11.80
2022-12-24T13:38:57.705Z,11.70
2022-12-24T13:41:38.911Z,11.70
2022-12-24T13:44:06.947Z,11.60
2022-12-24T13:46:50.699Z,11.50
2022-12-24T13:49:26.667Z,11.60
2022-12-24T13:52:15.822Z,11.70
2022-12-24T13:55:10.036Z,11.60
2022-12-24T13:58:03.817Z,11.70
2022-12-24T14:00:43.463Z,11.70
2022-12-24T14:03:13.230Z,11.60
2022-12-24T14:05:42.926Z,11.50
2022-12-24T14:08:16.810Z,11.40
2022-12-24T14:11:15.869Z,11.40
2022-12-24T14:13:42.370Z,11.40
2022-12-24T14:16:17.294Z,11.40
2022-12-24T14:19:00.880Z,11.40
2022-12-24T14:21:35.340Z,11.20
2022-12-24T14:24:06.757Z,11.10
2022-12-24T14:27:06.798Z,11.10
2022-12-24T14:29:37.490Z,11.10
2022-12-24T14:32:13.970Z,11.00
2022-12-24T14:34:40.608Z,11.00
2022-12-24T14:37:10.452Z,10.80
2022-12-24T14:39:41.963Z,10.80
2022-12-24T14:42:27.046Z,10.70
2022-12-24T14:45:05.413Z,10.70
2022-12-24T14:47:44.634Z,10.60
2022-12-24T14:50:34.297Z,10.60
2022-12-24T14:53:19.092Z,10.60
2022-12-24T14:55:48.423Z,10.50
2022-12-24T14:58:19.723Z,10.40
2022-12-24T15:00:46.512Z,10.30
2022-12-24T15:03:15.952Z,10.30
2022-12-24T15:05:43.892Z,10.30
2022-12-24T15:08:17.334Z,10.20
2022-12-24T15:10:46.577Z,10.20
2022-12-24T15:13:26.124Z,10.10
2022-12-24T15:15:55.103Z,9.90
2022-12-24T15:18:26.511Z,9.90
2022-12-24T15:21:01.790Z,9.80
2022-12-24T15:23:34.726Z,9.70
2022-12-24T15:26:08.764Z,9.60
2022-12-24T15:28:38.324Z,9.50
2022-12-24T15:31:17.408Z,9.30
2022-12-24T15:33:52.839Z,9.20
2022-12-24T15:36:42.760Z,9.10
2022-12-24T15:39:16.614Z,9.10
2022-12-24T15:42:03.628Z,9.00
2022-12-24T15:44:35.009Z,9.00
2022-12-24T15:47:04.796Z,9.00
2022-12-24T15:49:33.100Z,8.90
2022-12-24T15:52:09.595Z,8.80
2022-12-24T15:54:36.623Z,8.80
2022-12-24T15:57:27.142Z,8.80
2022-12-24T15:59:56.422Z,8.70
2022-12-24T16:02:42.153Z,8.60
2022-12-24T16:05:18.533Z,8.50
2022-12-24T16:08:10.010Z,8.40
2022-12-24T16:10:40.515Z,8.40
2022-12-24T16:13:22.297Z,8.30
2022-12-24T16:15:55.852Z,8.20
2022-12-24T16:18:42.373Z,8.10
2022-12-24T16:21:09.220Z,8.00
2022-12-24T16:23:52.393Z,7.90
2022-12-24T16:26:18.995Z,7.90
2022-12-24T16:28:45.657Z,7.80
2022-12-24T16:31:45.878Z,7.70
2022-12-24T16:34:15.025Z,7.60
2022-12-24T16:36:44.646Z,7.50
2022-12-24T16:39:26.699Z,7.50
2022-12-24T16:42:14.000Z,7.40
2022-12-24T16:44:41.432Z,7.40
2022-12-24T16:47:34.654Z,7.30
2022-12-24T16:50:08.610Z,7.20
2022-12-24T16:52:35.291Z,7.10
2022-12-24T16:55:02.305Z,7.10
2022-12-24T16:57:29.370Z,7.00
2022-12-24T16:59:55.969Z,7.00
2022-12-24T17:02:24.829Z,7.00
2022-12-24T17:04:52.210Z,6.90
2022-12-24T17:07:21.011Z,6.80
2022-12-24T17:09:47.653Z,6.80
2022-12-24T17:12:14.322Z,6.80
2022-12-24T17:14:42.251Z,6.70
2022-12-24T17:17:22.861Z,6.70
2022-12-24T17:19:49.459Z,6.70
2022-12-24T17:22:16.252Z,6.60
2022-12-24T17:24:43.227Z,6.60
2022-12-24T17:27:09.872Z,6.50
2022-12-24T17:29:36.483Z,6.50
2022-12-24T17:32:03.317Z,6.50
2022-12-24T17:34:29.996Z,6.40
2022-12-24T17:36:56.597Z,6.40
2022-12-24T17:39:27.641Z,6.40
2022-12-24T17:41:54.951Z,6.40
2022-12-24T17:44:21.480Z,6.30
2022-12-24T17:46:48.098Z,6.30
2022-12-24T17:49:14.813Z,6.20
2022-12-24T17:51:45.623Z,6.20
2022-12-24T17:54:13.123Z,6.10
2022-12-24T17:56:39.720Z,6.10
2022-12-24T17:59:06.345Z,6.00
2022-12-24T18:01:33.294Z,6.00
2022-12-24T18:04:01.845Z,5.90
2022-12-24T18:06:28.563Z,5.90
2022-12-24T18:08:55.462Z,5.90
2022-12-24T18:11:32.549Z,5.90
2022-12-24T18:14:00.997Z,5.90
2022-12-24T18:16:33.563Z,5.90
2022-12-24T18:19:00.661Z,5.80
2022-12-24T18:21:29.601Z,5.70
2022-12-24T18:23:56.773Z,5.70
2022-12-24T18:26:25.851Z,5.70
2022-12-24T18:28:57.699Z,5.70
2022-12-24T18:31:26.549Z,5.70
2022-12-24T18:33:55.617Z,5.60
2022-12-24T18:36:23.207Z,5.60
2022-12-24T18:38:50.216Z,5.50
2022-12-24T18:41:23.121Z,5.50
2022-12-24T18:43:50.040Z,5.40
2022-12-24T18:46:20.270Z,5.40
2022-12-24T18:48:47.639Z,5.40
2022-12-24T18:51:15.150Z,5.40
2022-12-24T18:53:42.187Z,5.40
2022-12-24T18:56:17.796Z,5.40
2022-12-24T18:58:45.247Z,5.30
2022-12-24T19:01:26.621Z,5.30
2022-12-24T19:03:53.788Z,5.30
2022-12-24T19:06:21.104Z,5.20
2022-12-24T19:09:03.404Z,5.20
2022-12-24T19:11:32.249Z,5.20
2022-12-24T19:14:00.306Z,5.20
2022-12-24T19:16:28.497Z,5.10
2022-12-24T19:18:55.428Z,5.00
2022-12-24T19:21:22.064Z,5.00
2022-12-24T19:23:49.073Z,5.10
2022-12-24T19:26:17.536Z,5.10
2022-12-24T19:28:44.587Z,5.10
2022-12-24T19:31:14.289Z,5.10
2022-12-24T19:33:44.087Z,5.10
2022-12-24T19:36:14.744Z,5.10
2022-12-24T19:38:41.752Z,5.10
2022-12-24T19:41:13.411Z,5.10
2022-12-24T19:43:41.439Z,5.10
2022-12-24T19:46:14.321Z,5.00
2022-12-24T19:48:42.137Z,5.10
2022-12-24T19:51:11.994Z,5.10
2022-12-24T19:53:39.059Z,5.10
2022-12-24T19:56:06.258Z,5.00
2022-12-24T19:58:32.906Z,5.10
2022-12-24T20:01:14.530Z,5.10
2022-12-24T20:03:42.258Z,5.10
2022-12-24T20:06:09.167Z,5.10
2022-12-24T20:08:36.858Z,5.00
2022-12-24T20:11:08.671Z,5.00
2022-12-24T20:13:37.053Z,5.00
2022-12-24T20:16:09.763Z,5.00
2022-12-24T20:18:36.767Z,4.90
2022-12-24T20:21:07.941Z,4.90
2022-12-24T20:23:39.005Z,5.00
2022-12-24T20:26:07.837Z,5.10
2022-12-24T20:28:36.636Z,5.10
2022-12-24T20:31:25.876Z,5.10
2022-12-24T20:33:53.314Z,5.10
2022-12-24T20:36:21.554Z,5.20
2022-12-24T20:38:48.712Z,5.20
2022-12-24T20:41:18.027Z,5.20
2022-12-24T20:43:48.373Z,5.20
2022-12-24T20:46:16.855Z,5.20
2022-12-24T20:48:43.469Z,5.20
2022-12-24T20:51:24.349Z,5.20
2022-12-24T20:53:56.610Z,5.20
2022-12-24T20:56:23.439Z,5.20
2022-12-24T20:58:50.315Z,5.20
2022-12-24T21:01:25.830Z,5.20
2022-12-24T21:03:54.595Z,5.30
2022-12-24T21:06:21.883Z,5.30
2022-12-24T21:08:49.633Z,5.30
2022-12-24T21:11:34.855Z,5.30
2022-12-24T21:14:02.011Z,5.30
2022-12-24T21:16:30.393Z,5.30
2022-12-24T21:18:57.076Z,5.30
2022-12-24T21:21:23.757Z,5.30
2022-12-24T21:23:50.430Z,5.40
2022-12-24T21:26:17.108Z,5.40
2022-12-24T21:28:45.222Z,5.40
2022-12-24T21:31:13.349Z,5.40
2022-12-24T21:33:40.441Z,5.40
2022-12-24T21:36:07.718Z,5.40
2022-12-24T21:38:34.578Z,5.40
2022-12-24T21:41:06.490Z,5.40
2022-12-24T21:43:35.016Z,5.40
2022-12-24T21:46:05.794Z,5.40
2022-12-24T21:48:50.958Z,5.50
2022-12-24T21:51:17.635Z,5.50
2022-12-24T21:54:02.735Z,5.50
2022-12-24T21:56:29.340Z,5.50
2022-12-24T21:58:55.896Z,5.50
2022-12-24T22:01:22.896Z,5.40
2022-12-24T22:03:49.958Z,5.50
2022-12-24T22:06:35.305Z,5.50
2022-12-24T22:09:20.727Z,5.50
2022-12-24T22:11:54.635Z,5.50
2022-12-24T22:14:21.755Z,5.50
2022-12-24T22:16:48.443Z,5.50
2022-12-24T22:19:15.131Z,5.50
2022-12-24T22:21:41.852Z,5.50
2022-12-24T22:24:08.764Z,5.50
2022-12-24T22:26:35.401Z,5.60
2022-12-24T22:29:04.798Z,5.50
2022-12-24T22:31:32.456Z,5.60
2022-12-24T22:33:59.256Z,5.60
2022-12-24T22:36:25.887Z,5.60
2022-12-24T22:38:52.435Z,5.70
2022-12-24T22:41:19.089Z,5.70
2022-12-24T22:43:45.667Z,5.90
2022-12-24T22:46:13.730Z,5.90
2022-12-24T22:48:41.888Z,5.90
2022-12-24T22:51:14.152Z,6.10
2022-12-24T22:53:40.991Z,6.00
2022-12-24T22:56:11.349Z,6.20
2022-12-24T22:58:37.910Z,6.00
2022-12-24T23:01:04.751Z,6.00
2022-12-24T23:03:31.478Z,6.00
2022-12-24T23:06:07.335Z,6.10
2022-12-24T23:08:35.676Z,6.00
2022-12-24T23:11:11.080Z,6.00
2022-12-24T23:13:58.434Z,6.00
2022-12-24T23:16:27.078Z,6.00
2022-12-24T23:18:56.344Z,5.90
2022-12-24T23:21:23.641Z,5.90
2022-12-24T23:23:50.657Z,3.80
2022-12-24T23:26:18.895Z,5.80
2022-12-24T23:28:45.882Z,5.80
2022-12-24T23:31:12.964Z,5.70
2022-12-24T23:33:39.579Z,5.70
2022-12-24T23:36:06.769Z,5.70
2022-12-24T23:38:33.682Z,5.70
2022-12-24T23:41:02.425Z,5.60
2022-12-24T23:43:29.303Z,5.60
2022-12-24T23:45:56.359Z,5.60
2022-12-24T23:48:24.420Z,5.60
2022-12-24T23:50:51.273Z,5.60
2022-12-24T23:53:19.047Z,5.50
2022-12-24T23:55:46.315Z,5.60
2022-12-24T23:58:15.182Z,5.60
